Moville, IA (51039)

5:36 PM CST on February 08, 2016 (GMT -0600)
Golf Course Addition | | Change Station
CLOSE
Current Station
Personal Weather Station
Location: Moville, IA
Elevation: 1188 ft
Nearby Weather Stations
Active Advisory: Winter Weather Advisory

Elev 1188 ft 42.49 °N, 96.06 °W | Updated 16 seconds ago

Clear
Clear
27.1 °F
Feels Like 18 °F
N
10.1
Wind Variable Wind from North
Gusts 15.0 mph

Today
High -- | Low -- °F
--% Chance of Precip.
Yesterday
High -- | Low -- °F
Precip. -- in
Pressure 30.14 in
Visibility 10.0 miles
Clouds Clear
Windchill 18 °F
Dew Point 12 °F
Humidity 51%
Rainfall 0.00 in
Snow Depth Not available.
7:30 AM 5:46 PM
New Moon, 0% visible
METAR KSUX 082252Z 34025G29KT 10SM CLR M02/M08 A3010 RMK AO2 PK WND 33033/2203 SLP206 T10221078
Pressure 30.14 in
Visibility 10.0 miles
Clouds Clear
Windchill 18 °F
Dew Point 12 °F
Humidity 51%
Rainfall 0.00 in
Snow Depth Not available.
7:30 AM 5:46 PM
New Moon, 0% visible
METAR KSUX 082252Z 34025G29KT 10SM CLR M02/M08 A3010 RMK AO2 PK WND 33033/2203 SLP206 T10221078

10-Day Weather Forecast

Almanac

Astronomy

Feb. 08, 2016 Rise Set
Actual Time
Civil Twilight
Nautical Twilight
Astronomical Twilight
Moon
Length of Visible Light
Length of Day
Tomorrow will be .
, % of the Moon is Illuminated

Today's Extremes

State Highs State Lows

Community

WunderPhotos

Upload Photos

1,891,525 photos uploaded!

WunderBlog® & News

Nearby

Air Quality

  Air Quality AQ Index Pollutant
Not available.

Snow Depth

Station Depth Elevation

Earthquake Activity

City Distance Mag. Time & Date
Minimum magnitude displayed is 2.5.

Coastal Water Temperatures

Place Temperature

Stations

Nearby Weather Stations

Station Location Temp. Windchill Dew Point Humidity Wind Precip. Elev Updated Type
                   

Watches & Warnings

Winter Weather Advisory
Issued: 2:52 PM CST Feb. 8, 2016 – National Weather Service

... Winter Weather Advisory remains in effect until 6 PM CST this
evening...

* timing... light snow will gradually taper off this afternoon... but
areas of blowing snow will continue.

* Accumulations... little additional accumulation is expected
today.

* Wind and visibility... northwest winds of 20 to 30 mph with gusts
to 40 mph will persist into the afternoon hours. These winds will
create periods of reduced visibility and slick driving
conditions through sunset.

* Impacts... travel will be very difficult... travel will begin to
improve by sunset.

Precautionary/preparedness actions...

A Winter Weather Advisory for blowing snow means that
visibilities will be limited due to strong winds blowing snow
around. Use caution when traveling... especially in open areas.